Terminal Aerodrome Forecast
Issued by NWS

Home | Current Version | Previous Version | Graphics & Text | Print | Product List | Glossary On
Versions: 1 2 3 4 5 6 7 8 9 10 11 12 13 14 15 16
726
FTUS43 KICT 180933 AAB
TAFHUT
TAF AMD
KHUT 180933Z 1810/1906 VRB06KT P6SM SCT100
     FM181400 19007KT P6SM FEW025 BKN250
     FM181700 22011KT P6SM FEW250
     FM182100 24010KT P6SM VCTS SCT060CB BKN100
     FM190200 02006KT P6SM BKN100=

USA.gov is the U.S. government's official web portal to all federal, state and local government web resources and services.